createdAt,value
2019-04-04T00:01:39.048Z,99248.57
2019-04-04T00:04:07.360Z,99249.59
2019-04-04T00:06:35.674Z,99250.71
2019-04-04T00:09:06.864Z,99244.17
2019-04-04T00:11:36.910Z,99245.30
2019-04-04T00:14:05.198Z,99238.91
2019-04-04T00:16:33.512Z,99237.91
2019-04-04T00:19:01.887Z,99248.22
2019-04-04T00:21:30.188Z,99250.50
2019-04-04T00:23:58.466Z,99250.34
2019-04-04T00:26:26.763Z,99240.67
2019-04-04T00:28:55.057Z,99221.20
2019-04-04T00:31:23.340Z,99209.40
2019-04-04T00:33:51.654Z,99201.88
2019-04-04T00:36:20.195Z,99192.84
2019-04-04T00:38:48.513Z,99183.52
2019-04-04T00:41:17.053Z,99197.80
2019-04-04T00:43:45.379Z,99217.61
2019-04-04T00:46:13.652Z,99227.78
2019-04-04T00:48:41.962Z,99236.64
2019-04-04T00:51:10.292Z,99229.75
2019-04-04T00:53:38.691Z,99238.42
2019-04-04T00:56:07.001Z,99241.04
2019-04-04T00:58:35.291Z,99232.71
2019-04-04T01:01:03.657Z,99242.03
2019-04-04T01:03:31.951Z,99230.25
2019-04-04T01:06:02.675Z,99221.88
2019-04-04T01:08:30.274Z,99196.17
2019-04-04T01:10:58.651Z,99189.80
2019-04-04T01:13:27.697Z,99188.48
2019-04-04T01:15:56.173Z,99191.63
2019-04-04T01:18:24.463Z,99205.22
2019-04-04T01:20:52.744Z,99203.91
2019-04-04T01:23:21.047Z,99202.61
2019-04-04T01:25:49.345Z,99209.97
2019-04-04T01:28:17.671Z,99199.67
2019-04-04T01:30:45.987Z,99193.45
2019-04-04T01:33:14.267Z,99190.02
2019-04-04T01:35:42.665Z,99211.80
2019-04-04T01:38:10.948Z,99198.53
2019-04-04T01:40:39.239Z,99194.94
2019-04-04T01:43:09.232Z,99202.98
2019-04-04T01:45:37.614Z,99210.99
2019-04-04T01:48:05.924Z,99209.86
2019-04-04T01:50:34.236Z,99215.13
2019-04-04T01:53:02.527Z,99202.82
2019-04-04T01:55:30.831Z,99199.89
2019-04-04T01:57:59.115Z,99194.65
2019-04-04T02:00:27.831Z,99197.27
2019-04-04T02:02:56.133Z,99193.84
2019-04-04T02:05:26.707Z,99178.93
2019-04-04T02:07:54.518Z,99164.38
2019-04-04T02:10:22.873Z,99157.50
2019-04-04T02:12:51.176Z,99148.16
2019-04-04T02:15:19.467Z,99147.67
2019-04-04T02:17:48.042Z,99145.41
2019-04-04T02:20:16.431Z,99152.30
2019-04-04T02:22:44.782Z,99160.14
2019-04-04T02:25:13.281Z,99168.02
2019-04-04T02:27:41.812Z,99158.22
2019-04-04T02:30:14.637Z,99155.93
2019-04-04T02:32:40.412Z,99150.86
2019-04-04T02:35:10.771Z,99148.59
2019-04-04T02:37:38.899Z,99151.23
2019-04-04T02:40:08.985Z,99152.86
2019-04-04T02:42:38.086Z,99149.13
2019-04-04T02:45:06.906Z,99145.20
2019-04-04T02:47:35.210Z,99136.03
2019-04-04T02:50:05.242Z,99129.33
2019-04-04T02:52:33.586Z,99114.64
2019-04-04T02:55:01.870Z,99105.31
2019-04-04T02:57:30.154Z,99110.88
2019-04-04T02:59:58.554Z,99127.70
2019-04-04T03:02:27.077Z,99131.63
2019-04-04T03:04:55.430Z,99135.41
2019-04-04T03:07:23.998Z,99116.59
2019-04-04T03:09:52.307Z,99113.66
2019-04-04T03:12:20.626Z,99139.98
2019-04-04T03:14:50.750Z,99130.33
2019-04-04T03:17:19.244Z,99123.95
2019-04-04T03:19:47.558Z,99134.58
2019-04-04T03:22:15.863Z,99156.14
2019-04-04T03:24:45.135Z,99172.01
2019-04-04T03:27:13.999Z,99194.23
2019-04-04T03:29:42.342Z,99205.83
2019-04-04T03:32:14.608Z,99216.78
2019-04-04T03:34:47.870Z,99199.78
2019-04-04T03:37:12.399Z,99177.23
2019-04-04T03:39:40.970Z,99156.48
2019-04-04T03:42:09.293Z,99142.11
2019-04-04T03:44:37.600Z,99118.71
2019-04-04T03:47:09.865Z,99115.61
2019-04-04T03:49:36.682Z,99117.74
2019-04-04T03:52:04.998Z,99132.30
2019-04-04T03:54:33.625Z,99125.76
2019-04-04T03:57:01.933Z,99148.63
2019-04-04T03:59:32.274Z,99153.20
2019-04-04T04:02:00.257Z,99151.91
2019-04-04T04:04:28.590Z,99157.13
2019-04-04T04:06:56.906Z,99162.54
2019-04-04T04:09:26.342Z,99148.30
2019-04-04T04:11:55.210Z,99140.95
2019-04-04T04:14:23.531Z,99133.43
2019-04-04T04:16:51.824Z,99121.66
2019-04-04T04:19:24.014Z,99106.63
2019-04-04T04:21:50.153Z,99126.55
2019-04-04T04:24:18.491Z,99146.51
2019-04-04T04:26:46.843Z,99149.13
2019-04-04T04:29:15.439Z,99130.82
2019-04-04T04:31:48.277Z,99105.63
2019-04-04T04:34:13.974Z,99111.04
2019-04-04T04:36:42.269Z,99123.62
2019-04-04T04:39:10.607Z,99126.55
2019-04-04T04:41:38.890Z,99120.68
2019-04-04T04:44:07.238Z,99121.17
2019-04-04T04:46:35.844Z,99119.05
2019-04-04T04:49:04.428Z,99112.66
2019-04-04T04:51:33.109Z,99105.64
2019-04-04T04:54:01.422Z,99105.31
2019-04-04T04:56:31.386Z,99103.20
2019-04-04T04:58:59.766Z,99100.23
2019-04-04T05:01:28.347Z,99096.32
2019-04-04T05:03:57.264Z,99092.72
2019-04-04T05:06:25.651Z,99101.20
2019-04-04T05:08:53.928Z,99116.06
2019-04-04T05:11:22.236Z,99115.25
2019-04-04T05:13:50.525Z,99114.59
2019-04-04T05:16:18.845Z,99112.15
2019-04-04T05:18:48.212Z,99098.91
2019-04-04T05:21:24.820Z,99088.14
2019-04-04T05:23:47.600Z,99088.31
2019-04-04T05:26:16.092Z,99107.73
2019-04-04T05:28:44.396Z,99115.92
2019-04-04T05:31:12.733Z,99111.51
2019-04-04T05:33:41.022Z,99120.02
2019-04-04T05:36:09.372Z,99131.28
2019-04-04T05:38:37.663Z,99142.41
2019-04-04T05:41:06.039Z,99147.14
2019-04-04T05:43:35.264Z,99133.75
2019-04-04T05:46:04.788Z,99122.16
2019-04-04T05:48:33.096Z,99117.74
2019-04-04T05:51:01.764Z,99135.55
2019-04-04T05:53:30.061Z,99146.01
2019-04-04T05:55:58.420Z,99147.49
2019-04-04T05:58:26.730Z,99155.66
2019-04-04T06:00:57.747Z,99146.01
2019-04-04T06:03:25.417Z,99141.09
2019-04-04T06:05:53.712Z,99152.23
2019-04-04T06:08:22.503Z,99168.55
2019-04-04T06:10:50.925Z,99159.26
2019-04-04T06:13:22.140Z,99156.64
2019-04-04T06:15:49.179Z,99146.84
2019-04-04T06:18:17.498Z,99158.94
2019-04-04T06:20:48.361Z,99153.03
2019-04-04T06:23:16.150Z,99147.16
2019-04-04T06:25:44.614Z,99142.11
2019-04-04T06:28:12.933Z,99126.90
2019-04-04T06:30:43.502Z,99116.61
2019-04-04T06:33:11.289Z,99138.52
2019-04-04T06:35:40.115Z,99151.59
2019-04-04T06:38:08.547Z,99153.88
2019-04-04T06:40:37.146Z,99152.72
2019-04-04T06:43:10.304Z,99177.73
2019-04-04T06:45:35.554Z,99184.59
2019-04-04T06:48:03.970Z,99185.58
2019-04-04T06:50:32.270Z,99198.20
2019-04-04T06:53:01.177Z,99201.95
2019-04-04T06:55:29.745Z,99205.55
2019-04-04T06:57:58.310Z,99207.52
2019-04-04T07:00:27.032Z,99206.52
2019-04-04T07:02:56.300Z,99210.44
2019-04-04T07:05:24.758Z,99217.64
2019-04-04T07:07:53.112Z,99205.70
2019-04-04T07:10:22.103Z,99206.02
2019-04-04T07:12:50.506Z,99213.19
2019-04-04T07:15:18.784Z,99210.09
2019-04-04T07:17:47.098Z,99217.13
2019-04-04T07:20:17.090Z,99211.21
2019-04-04T07:22:45.607Z,99208.76
2019-04-04T07:25:14.191Z,99215.65
2019-04-04T07:27:42.981Z,99206.30
2019-04-04T07:30:11.747Z,99201.55
2019-04-04T07:32:41.559Z,99203.19
2019-04-04T07:35:10.132Z,99205.30
2019-04-04T07:37:38.445Z,99208.55
2019-04-04T07:40:06.968Z,99209.34
2019-04-04T07:42:35.285Z,99211.63
2019-04-04T07:45:06.291Z,99206.38
2019-04-04T07:47:34.605Z,99219.14
2019-04-04T07:50:02.906Z,99222.08
2019-04-04T07:52:33.160Z,99221.61
2019-04-04T07:55:01.928Z,99218.83
2019-04-04T07:57:30.526Z,99219.18
2019-04-04T07:59:58.867Z,99221.78
2019-04-04T08:02:27.163Z,99222.47
2019-04-04T08:04:55.823Z,99222.14
2019-04-04T08:07:24.294Z,99221.86
2019-04-04T08:09:52.857Z,99216.47
2019-04-04T08:12:21.156Z,99233.67
2019-04-04T08:14:49.459Z,99226.63
2019-04-04T08:17:19.015Z,99220.27
2019-04-04T08:19:59.113Z,99222.06
2019-04-04T08:22:17.945Z,99230.41
2019-04-04T08:24:46.350Z,99230.08
2019-04-04T08:27:14.736Z,99232.84
2019-04-04T08:29:43.041Z,99231.69
2019-04-04T08:32:11.584Z,99233.63
2019-04-04T08:34:40.286Z,99240.49
2019-04-04T08:37:09.040Z,99241.12
2019-04-04T08:39:37.355Z,99252.06
2019-04-04T08:42:05.680Z,99243.89
2019-04-04T08:44:33.985Z,99246.97
2019-04-04T08:47:02.267Z,99245.20
2019-04-04T08:49:30.834Z,99246.84
2019-04-04T08:51:59.175Z,99238.17
2019-04-04T08:54:27.468Z,99238.80
2019-04-04T08:56:55.799Z,99238.46
2019-04-04T08:59:24.085Z,99244.68
2019-04-04T09:01:52.401Z,99251.05
2019-04-04T09:04:23.918Z,99258.92
2019-04-04T09:06:51.142Z,99261.03
2019-04-04T09:09:19.442Z,99265.41
2019-04-04T09:11:48.078Z,99271.30
2019-04-04T09:14:16.674Z,99264.57
2019-04-04T09:16:44.996Z,99266.86
2019-04-04T09:19:13.276Z,99264.52
2019-04-04T09:21:41.591Z,99268.78
2019-04-04T09:24:09.996Z,99267.59
2019-04-04T09:26:38.296Z,99273.50
2019-04-04T09:29:06.605Z,99265.60
2019-04-04T09:31:35.215Z,99269.70
2019-04-04T09:34:03.540Z,99259.84
2019-04-04T09:36:31.842Z,99264.89
2019-04-04T09:39:00.156Z,99260.36
2019-04-04T09:41:28.440Z,99264.14
2019-04-04T09:43:57.137Z,99251.70
2019-04-04T09:46:25.445Z,99255.00
2019-04-04T09:48:53.741Z,99254.21
2019-04-04T09:51:22.023Z,99252.58
2019-04-04T09:53:53.374Z,99255.52
2019-04-04T09:56:20.679Z,99247.50
2019-04-04T09:58:48.980Z,99250.12
2019-04-04T10:01:17.277Z,99253.53
2019-04-04T10:03:45.588Z,99252.55
2019-04-04T10:06:13.883Z,99255.81
2019-04-04T10:08:42.253Z,99255.34
2019-04-04T10:11:10.570Z,99266.49
2019-04-04T10:13:38.867Z,99271.73
2019-04-04T10:16:07.313Z,99264.52
2019-04-04T10:18:35.549Z,99269.14
2019-04-04T10:21:11.921Z,99270.44
2019-04-04T10:23:34.235Z,99270.65
2019-04-04T10:26:02.619Z,99276.57
2019-04-04T10:28:30.940Z,99281.69
2019-04-04T10:30:59.263Z,99279.19
2019-04-04T10:33:28.113Z,99272.66
2019-04-04T10:35:56.494Z,99266.08
2019-04-04T10:38:24.814Z,99268.03
2019-04-04T10:40:53.093Z,99263.09
2019-04-04T10:43:21.413Z,99266.20
2019-04-04T10:45:49.698Z,99264.69
2019-04-04T10:48:18.326Z,99274.47
2019-04-04T10:50:46.629Z,99271.51
2019-04-04T10:53:14.947Z,99271.38
2019-04-04T10:55:43.223Z,99274.02
2019-04-04T10:58:11.897Z,99271.14
2019-04-04T11:00:40.320Z,99269.20
2019-04-04T11:03:09.017Z,99264.20
2019-04-04T11:05:37.599Z,99265.36
2019-04-04T11:08:05.928Z,99255.08
2019-04-04T11:10:34.567Z,99254.05
2019-04-04T11:13:03.213Z,99251.28
2019-04-04T11:15:31.496Z,99253.06
2019-04-04T11:17:59.812Z,99260.86
2019-04-04T11:20:28.111Z,99271.19
2019-04-04T11:22:56.426Z,99263.34
2019-04-04T11:25:25.031Z,99269.89
2019-04-04T11:27:54.164Z,99263.67
2019-04-04T11:30:22.532Z,99260.26
2019-04-04T11:32:51.098Z,99264.50
2019-04-04T11:35:19.715Z,99272.86
2019-04-04T11:37:48.087Z,99279.40
2019-04-04T11:40:16.423Z,99278.42
2019-04-04T11:42:44.700Z,99274.13
2019-04-04T11:45:13.312Z,99272.17
2019-04-04T11:47:41.610Z,99277.55
2019-04-04T11:50:10.258Z,99280.18
2019-04-04T11:52:38.563Z,99289.48
2019-04-04T11:55:07.133Z,99290.50
2019-04-04T11:57:35.525Z,99298.52
2019-04-04T12:00:06.423Z,99304.41
2019-04-04T12:02:34.727Z,99307.50
2019-04-04T12:05:03.024Z,99314.33
2019-04-04T12:07:31.334Z,99315.13
2019-04-04T12:10:07.239Z,99310.68
2019-04-04T12:12:29.672Z,99325.91
2019-04-04T12:14:58.059Z,99333.11
2019-04-04T12:17:26.537Z,99321.94
2019-04-04T12:19:54.831Z,99323.36
2019-04-04T12:22:23.182Z,99331.83
2019-04-04T12:24:51.477Z,99329.86
2019-04-04T12:27:20.136Z,99330.39
2019-04-04T12:29:48.722Z,99323.02
2019-04-04T12:32:17.355Z,99326.42
2019-04-04T12:34:45.652Z,99317.52
2019-04-04T12:37:14.185Z,99322.42
2019-04-04T12:39:44.415Z,99331.43
2019-04-04T12:42:12.962Z,99331.27
2019-04-04T12:44:41.267Z,99327.42
2019-04-04T12:47:09.826Z,99329.55
2019-04-04T12:49:38.224Z,99328.70
2019-04-04T12:52:06.781Z,99329.61
2019-04-04T12:54:35.111Z,99326.95
2019-04-04T12:57:03.404Z,99321.98
2019-04-04T12:59:31.746Z,99327.08
2019-04-04T13:02:00.503Z,99319.20
2019-04-04T13:04:31.879Z,99321.33
2019-04-04T13:06:58.829Z,99302.98
2019-04-04T13:09:27.227Z,99300.70
2019-04-04T13:11:55.677Z,99294.45
2019-04-04T13:14:23.977Z,99297.34
2019-04-04T13:16:52.269Z,99289.63
2019-04-04T13:19:20.570Z,99294.17
2019-04-04T13:21:48.888Z,99287.91
2019-04-04T13:24:17.183Z,99297.77
2019-04-04T13:26:45.551Z,99292.55
2019-04-04T13:29:13.954Z,99291.47
2019-04-04T13:31:42.242Z,99301.05
2019-04-04T13:34:10.543Z,99306.52
2019-04-04T13:36:38.827Z,99319.67
2019-04-04T13:39:09.840Z,99330.65
2019-04-04T13:41:38.286Z,99335.89
2019-04-04T13:44:06.561Z,99349.20
2019-04-04T13:46:35.105Z,99358.08
2019-04-04T13:49:03.687Z,99359.61
2019-04-04T13:51:32.111Z,99368.47
2019-04-04T13:54:00.385Z,99358.02
2019-04-04T13:56:29.377Z,99359.71
2019-04-04T13:59:01.138Z,99364.98
2019-04-04T14:01:28.067Z,99353.67
2019-04-04T14:03:56.833Z,99367.13
2019-04-04T14:06:25.139Z,99374.66
2019-04-04T14:08:53.436Z,99369.40
2019-04-04T14:11:22.080Z,99366.77
2019-04-04T14:13:50.392Z,99372.52
2019-04-04T14:16:19.034Z,99374.95
2019-04-04T14:18:47.629Z,99381.83
2019-04-04T14:21:16.298Z,99385.63
2019-04-04T14:23:45.390Z,99381.83
2019-04-04T14:26:13.810Z,99375.28
2019-04-04T14:28:42.117Z,99392.00
2019-04-04T14:31:10.399Z,99394.62
2019-04-04T14:33:39.018Z,99392.50
2019-04-04T14:36:07.301Z,99406.93
2019-04-04T14:38:35.615Z,99408.59
2019-04-04T14:41:11.038Z,99401.69
2019-04-04T14:43:34.237Z,99403.67
2019-04-04T14:46:02.782Z,99398.23
2019-04-04T14:48:31.444Z,99386.12
2019-04-04T14:50:59.737Z,99371.67
2019-04-04T14:53:28.030Z,99371.67
2019-04-04T14:55:56.321Z,99373.00
2019-04-04T14:58:24.954Z,99382.53
2019-04-04T15:00:53.478Z,99391.02
2019-04-04T15:03:21.867Z,99404.14
2019-04-04T15:05:50.147Z,99406.11
2019-04-04T15:08:18.450Z,99409.34
2019-04-04T15:10:46.763Z,99406.25
2019-04-04T15:13:15.168Z,99419.84
2019-04-04T15:16:03.189Z,99426.44
2019-04-04T15:18:31.473Z,99433.02
2019-04-04T15:20:59.783Z,99435.79
2019-04-04T15:23:28.079Z,99449.72
2019-04-04T15:25:56.379Z,99457.77
2019-04-04T15:28:26.081Z,99442.02
2019-04-04T15:30:54.533Z,99443.51
2019-04-04T15:33:22.821Z,99448.09
2019-04-04T15:35:51.111Z,99431.72
2019-04-04T15:38:19.411Z,99424.00
2019-04-04T15:40:47.697Z,99424.02
2019-04-04T15:43:16.166Z,99418.59
2019-04-04T15:45:44.474Z,99415.81
2019-04-04T15:48:13.217Z,99415.78
2019-04-04T15:50:41.797Z,99420.20
2019-04-04T15:53:10.373Z,99418.57
2019-04-04T15:55:38.686Z,99434.00
2019-04-04T15:58:07.063Z,99447.91
2019-04-04T16:00:35.458Z,99463.64
2019-04-04T16:03:04.120Z,99449.72
2019-04-04T16:05:32.900Z,99445.80
2019-04-04T16:08:01.251Z,99450.37
2019-04-04T16:10:29.478Z,99449.23
2019-04-04T16:12:58.121Z,99440.89
2019-04-04T16:15:26.485Z,99449.55
2019-04-04T16:17:55.191Z,99447.27
2019-04-04T16:20:23.499Z,99452.51
2019-04-04T16:22:51.808Z,99477.42
2019-04-04T16:25:20.094Z,99480.72
2019-04-04T16:27:48.396Z,99486.78
2019-04-04T16:30:16.789Z,99489.39
2019-04-04T16:32:45.337Z,99492.02
2019-04-04T16:35:14.047Z,99491.52
2019-04-04T16:37:42.325Z,99489.38
2019-04-04T16:40:10.993Z,99482.50
2019-04-04T16:42:39.284Z,99485.31
2019-04-04T16:45:08.025Z,99496.48
2019-04-04T16:47:36.319Z,99484.32
2019-04-04T16:50:06.202Z,99481.84
2019-04-04T16:52:34.848Z,99479.56
2019-04-04T16:55:03.922Z,99488.44
2019-04-04T16:57:32.519Z,99490.08
2019-04-04T17:00:00.806Z,99493.02
2019-04-04T17:02:29.360Z,99501.38
2019-04-04T17:04:57.643Z,99492.52
2019-04-04T17:07:26.194Z,99489.56
2019-04-04T17:09:54.497Z,99488.42
2019-04-04T17:12:22.795Z,99487.61
2019-04-04T17:14:51.086Z,99484.17
2019-04-04T17:17:19.387Z,99483.01
2019-04-04T17:19:47.931Z,99479.89
2019-04-04T17:22:16.249Z,99477.77
2019-04-04T17:24:45.545Z,99481.05
2019-04-04T17:27:13.837Z,99483.86
2019-04-04T17:29:42.149Z,99503.99
2019-04-04T17:32:10.871Z,99519.72
2019-04-04T17:34:39.875Z,99523.84
2019-04-04T17:37:08.189Z,99525.78
2019-04-04T17:39:36.539Z,99524.97
2019-04-04T17:42:04.874Z,99530.71
2019-04-04T17:44:33.192Z,99529.55
2019-04-04T17:47:02.134Z,99527.73
2019-04-04T17:49:30.518Z,99533.33
2019-04-04T17:51:58.791Z,99535.95
2019-04-04T17:54:27.499Z,99543.15
2019-04-04T17:56:57.018Z,99544.60
2019-04-04T17:59:25.397Z,99541.98
2019-04-04T18:01:53.671Z,99542.16
2019-04-04T18:04:21.949Z,99543.47
2019-04-04T18:06:50.273Z,99547.54
2019-04-04T18:09:30.845Z,99541.48
2019-04-04T18:11:48.850Z,99551.79
2019-04-04T18:14:17.169Z,99554.77
2019-04-04T18:16:45.457Z,99563.44
2019-04-04T18:19:13.794Z,99576.38
2019-04-04T18:21:42.165Z,99575.88
2019-04-04T18:24:10.799Z,99573.92
2019-04-04T18:26:39.416Z,99569.82
2019-04-04T18:29:07.659Z,99572.44
2019-04-04T18:31:35.950Z,99564.11
2019-04-04T18:34:07.292Z,99542.30
2019-04-04T18:36:34.724Z,99546.09
2019-04-04T18:39:04.918Z,99564.58
2019-04-04T18:41:33.273Z,99589.83
2019-04-04T18:44:01.579Z,99606.52
2019-04-04T18:46:29.929Z,99597.69
2019-04-04T18:48:58.366Z,99605.88
2019-04-04T18:51:26.671Z,99613.88
2019-04-04T18:53:54.969Z,99611.75
2019-04-04T18:56:23.616Z,99612.56
2019-04-04T18:58:51.908Z,99611.26
2019-04-04T19:01:20.200Z,99612.10
2019-04-04T19:03:48.515Z,99609.95
2019-04-04T19:06:16.813Z,99610.44
2019-04-04T19:08:45.396Z,99606.52
2019-04-04T19:11:13.968Z,99604.38
2019-04-04T19:13:44.590Z,99608.31
2019-04-04T19:16:12.469Z,99615.69
2019-04-04T19:18:40.764Z,99616.50
2019-04-04T19:21:09.063Z,99619.47
2019-04-04T19:23:48.645Z,99614.38
2019-04-04T19:26:07.449Z,99599.64
2019-04-04T19:28:35.765Z,99597.33
2019-04-04T19:31:05.095Z,99603.06
2019-04-04T19:33:33.396Z,99608.27
2019-04-04T19:36:01.976Z,99609.25
2019-04-04T19:38:30.555Z,99613.19
2019-04-04T19:40:58.852Z,99631.84
2019-04-04T19:43:27.167Z,99639.56
2019-04-04T19:45:55.464Z,99641.20
2019-04-04T19:48:24.062Z,99654.66
2019-04-04T19:50:52.363Z,99648.42
2019-04-04T19:53:20.671Z,99649.73
2019-04-04T19:55:48.961Z,99659.22
2019-04-04T19:58:17.260Z,99663.30
2019-04-04T20:00:46.064Z,99663.78
2019-04-04T20:03:14.359Z,99668.21
2019-04-04T20:05:44.513Z,99673.31
2019-04-04T20:08:13.267Z,99669.38
2019-04-04T20:10:41.681Z,99656.42
2019-04-04T20:13:09.997Z,99654.78
2019-04-04T20:15:38.310Z,99665.08
2019-04-04T20:18:06.590Z,99665.25
2019-04-04T20:20:34.883Z,99662.14
2019-04-04T20:23:03.535Z,99654.77
2019-04-04T20:25:31.871Z,99650.03
2019-04-04T20:28:00.152Z,99647.05
2019-04-04T20:30:36.891Z,99646.23
2019-04-04T20:33:05.247Z,99653.11
2019-04-04T20:35:33.614Z,99655.27
2019-04-04T20:38:02.169Z,99652.97
2019-04-04T20:40:30.446Z,99646.56
2019-04-04T20:42:59.044Z,99648.22
2019-04-04T20:45:27.345Z,99654.28
2019-04-04T20:47:55.662Z,99663.95
2019-04-04T20:50:23.945Z,99659.20
2019-04-04T20:52:52.259Z,99656.39
2019-04-04T20:55:20.548Z,99657.84
2019-04-04T20:57:48.879Z,99648.03
2019-04-04T21:00:17.228Z,99644.09
2019-04-04T21:02:45.523Z,99646.36
2019-04-04T21:05:14.180Z,99654.89
2019-04-04T21:07:42.484Z,99663.56
2019-04-04T21:10:10.836Z,99663.07
2019-04-04T21:12:39.206Z,99661.62
2019-04-04T21:15:07.694Z,99674.23
2019-04-04T21:17:36.454Z,99681.09
2019-04-04T21:20:06.907Z,99678.65
2019-04-04T21:22:35.205Z,99678.48
2019-04-04T21:25:03.780Z,99686.83
2019-04-04T21:27:32.071Z,99688.79
2019-04-04T21:30:00.920Z,99686.34
2019-04-04T21:32:29.194Z,99694.69
2019-04-04T21:34:57.491Z,99696.81
2019-04-04T21:37:26.083Z,99697.50
2019-04-04T21:39:54.383Z,99701.89
2019-04-04T21:42:23.101Z,99703.86
2019-04-04T21:44:51.421Z,99700.92
2019-04-04T21:47:19.716Z,99693.20
2019-04-04T21:49:48.352Z,99687.77
2019-04-04T21:52:16.660Z,99689.54
2019-04-04T21:54:44.964Z,99695.39
2019-04-04T21:57:13.580Z,99695.39
2019-04-04T21:59:41.879Z,99695.72
2019-04-04T22:02:10.221Z,99710.80
2019-04-04T22:04:38.536Z,99708.02
2019-04-04T22:07:07.009Z,99708.50
2019-04-04T22:09:35.420Z,99700.33
2019-04-04T22:12:04.095Z,99690.84
2019-04-04T22:14:32.396Z,99700.14
2019-04-04T22:17:01.046Z,99703.74
2019-04-04T22:19:29.367Z,99721.75
2019-04-04T22:21:57.758Z,99725.02
2019-04-04T22:24:26.087Z,99718.80
2019-04-04T22:26:54.392Z,99708.19
2019-04-04T22:29:22.748Z,99709.80
2019-04-04T22:31:51.049Z,99719.45
2019-04-04T22:34:19.417Z,99733.53
2019-04-04T22:36:47.717Z,99738.28
2019-04-04T22:39:16.450Z,99739.09
2019-04-04T22:41:45.137Z,99744.66
2019-04-04T22:44:13.457Z,99740.59
2019-04-04T22:46:41.792Z,99741.41
2019-04-04T22:49:10.113Z,99742.06
2019-04-04T22:51:38.434Z,99741.25
2019-04-04T22:54:06.766Z,99741.73
2019-04-04T22:56:35.104Z,99748.28
2019-04-04T22:59:03.422Z,99744.03
2019-04-04T23:01:31.740Z,99745.67
2019-04-04T23:04:00.139Z,99739.61
2019-04-04T23:06:28.463Z,99745.97
2019-04-04T23:08:56.781Z,99741.05
2019-04-04T23:11:25.478Z,99744.34
2019-04-04T23:13:53.794Z,99733.86
2019-04-04T23:16:22.147Z,99738.28
2019-04-04T23:18:50.478Z,99740.90
2019-04-04T23:21:18.805Z,99741.23
2019-04-04T23:23:47.134Z,99748.27
2019-04-04T23:26:15.468Z,99753.50
2019-04-04T23:28:43.775Z,99752.69
2019-04-04T23:31:12.130Z,99757.24
2019-04-04T23:33:40.458Z,99752.98
2019-04-04T23:36:08.797Z,99754.30
2019-04-04T23:38:37.149Z,99753.94
2019-04-04T23:41:05.807Z,99752.50
2019-04-04T23:43:34.146Z,99758.42
2019-04-04T23:46:02.496Z,99752.33
2019-04-04T23:48:30.829Z,99758.42
2019-04-04T23:50:59.187Z,99763.98
2019-04-04T23:53:27.529Z,99765.29
2019-04-04T23:55:56.287Z,99763.00
2019-04-04T23:58:24.564Z,99764.80
